createdAt,value
2023-04-28T00:01:54.385Z,97538.25
2023-04-28T00:04:22.447Z,97544.47
2023-04-28T00:06:51.600Z,97540.66
2023-04-28T00:09:19.106Z,97532.41
2023-04-28T00:11:47.053Z,97538.19
2023-04-28T00:14:14.900Z,97519.31
2023-04-28T00:16:42.995Z,97528.38
2023-04-28T00:19:10.686Z,97531.38
2023-04-28T00:21:38.158Z,97515.34
2023-04-28T00:24:07.867Z,97510.44
2023-04-28T00:26:35.524Z,97514.22
2023-04-28T00:29:03.135Z,97510.25
2023-04-28T00:31:30.767Z,97503.38
2023-04-28T00:33:58.307Z,97503.03
2023-04-28T00:36:25.841Z,97493.09
2023-04-28T00:38:53.375Z,97499.38
2023-04-28T00:41:22.328Z,97492.69
2023-04-28T00:43:50.556Z,97497.88
2023-04-28T00:46:23.211Z,97489.69
2023-04-28T00:48:51.608Z,97489.16
2023-04-28T00:51:19.194Z,97485.53
2023-04-28T00:53:46.773Z,97487.94
2023-04-28T00:56:14.461Z,97475.50
2023-04-28T00:58:43.725Z,97474.75
2023-04-28T01:01:11.719Z,97476.88
2023-04-28T01:03:41.404Z,97475.41
2023-04-28T01:06:10.612Z,97480.78
2023-04-28T01:08:40.089Z,97463.91
2023-04-28T01:11:14.901Z,97470.16
2023-04-28T01:13:57.298Z,97461.31
2023-04-28T01:16:26.899Z,97462.81
2023-04-28T01:18:55.054Z,97474.81
2023-04-28T01:21:30.371Z,97462.78
2023-04-28T01:23:59.674Z,97457.00
2023-04-28T01:26:27.346Z,97454.09
2023-04-28T01:28:55.046Z,97458.94
2023-04-28T01:31:22.582Z,97459.59
2023-04-28T01:33:50.161Z,97451.97
2023-04-28T01:36:18.067Z,97455.50
2023-04-28T01:38:45.844Z,97449.59
2023-04-28T01:41:15.723Z,97451.44
2023-04-28T01:43:44.283Z,97443.97
2023-04-28T01:46:11.900Z,97447.06
2023-04-28T01:48:39.444Z,97446.84
2023-04-28T01:51:07.097Z,97440.31
2023-04-28T01:53:34.560Z,97443.34
2023-04-28T01:56:02.530Z,97438.38
2023-04-28T01:58:31.347Z,97434.91
2023-04-28T02:00:59.496Z,97433.63
2023-04-28T02:03:28.073Z,97437.78
2023-04-28T02:05:55.798Z,97438.09
2023-04-28T02:08:23.469Z,97434.91
2023-04-28T02:10:52.757Z,97435.09
2023-04-28T02:13:22.086Z,97423.13
2023-04-28T02:15:50.933Z,97424.63
2023-04-28T02:18:18.433Z,97420.13
2023-04-28T02:20:46.285Z,97422.66
2023-04-28T02:23:13.858Z,97424.31
2023-04-28T02:25:41.482Z,97421.16
2023-04-28T02:28:08.983Z,97425.56
2023-04-28T02:30:36.555Z,97417.66
2023-04-28T02:33:05.568Z,97415.84
2023-04-28T02:35:33.240Z,97425.97
2023-04-28T02:38:00.833Z,97421.97
2023-04-28T02:40:28.439Z,97418.00
2023-04-28T02:42:56.061Z,97415.94
2023-04-28T02:45:23.602Z,97411.28
2023-04-28T02:47:51.140Z,97415.13
2023-04-28T02:50:20.325Z,97411.94
2023-04-28T02:52:49.079Z,97412.78
2023-04-28T02:55:23.692Z,97403.25
2023-04-28T02:57:52.351Z,97399.34
2023-04-28T03:00:20.441Z,97397.25
2023-04-28T03:02:50.242Z,97395.78
2023-04-28T03:05:17.888Z,97387.25
2023-04-28T03:07:46.934Z,97390.91
2023-04-28T03:10:14.500Z,97384.97
2023-04-28T03:12:41.975Z,97378.00
2023-04-28T03:15:12.074Z,97383.31
2023-04-28T03:17:42.243Z,97373.53
2023-04-28T03:20:11.105Z,97371.31
2023-04-28T03:22:38.711Z,97376.47
2023-04-28T03:25:08.237Z,97377.94
2023-04-28T03:27:43.557Z,97376.81
2023-04-28T03:30:13.086Z,97383.59
2023-04-28T03:32:41.303Z,97376.47
2023-04-28T03:35:09.877Z,97379.75
2023-04-28T03:37:38.652Z,97373.91
2023-04-28T03:40:09.582Z,97368.22
2023-04-28T03:42:55.520Z,97366.75
2023-04-28T03:45:45.876Z,97368.22
2023-04-28T03:48:13.446Z,97363.75
2023-04-28T03:50:42.495Z,97357.78
2023-04-28T03:53:10.131Z,97366.41
2023-04-28T03:55:39.809Z,97361.25
2023-04-28T03:58:07.349Z,97352.47
2023-04-28T04:00:35.476Z,97356.59
2023-04-28T04:03:03.093Z,97353.13
2023-04-28T04:05:31.038Z,97349.63
2023-04-28T04:07:58.640Z,97350.59
2023-04-28T04:10:26.126Z,97349.56
2023-04-28T04:12:55.192Z,97345.88
2023-04-28T04:15:22.728Z,97345.53
2023-04-28T04:17:50.428Z,97334.91
2023-04-28T04:20:18.127Z,97330.06
2023-04-28T04:22:46.875Z,97332.91
2023-04-28T04:25:15.668Z,97322.28
2023-04-28T04:27:44.735Z,97327.25
2023-04-28T04:30:14.204Z,97335.38
2023-04-28T04:32:41.970Z,97329.69
2023-04-28T04:35:10.422Z,97327.13
2023-04-28T04:37:38.156Z,97320.44
2023-04-28T04:40:07.784Z,97333.47
2023-04-28T04:42:41.446Z,97329.44
2023-04-28T04:45:20.197Z,97337.78
2023-04-28T04:47:48.431Z,97333.09
2023-04-28T04:50:16.216Z,97322.84
2023-04-28T04:52:43.977Z,97310.84
2023-04-28T04:55:12.142Z,97310.75
2023-04-28T04:57:42.128Z,97313.69
2023-04-28T05:00:16.921Z,97322.72
2023-04-28T05:02:46.203Z,97314.41
2023-04-28T05:05:22.080Z,97318.44
2023-04-28T05:08:03.701Z,97313.84
2023-04-28T05:10:31.527Z,97316.94
2023-04-28T05:13:00.224Z,97308.81
2023-04-28T05:15:27.891Z,97309.06
2023-04-28T05:18:22.606Z,97306.31
2023-04-28T05:20:51.042Z,97312.19
2023-04-28T05:23:19.809Z,97306.69
2023-04-28T05:25:48.469Z,97306.75
2023-04-28T05:28:16.153Z,97298.78
2023-04-28T05:30:45.753Z,97304.56
2023-04-28T05:33:14.900Z,97297.59
2023-04-28T05:35:44.749Z,97296.09
2023-04-28T05:38:12.615Z,97294.25
2023-04-28T05:40:40.291Z,97294.09
2023-04-28T05:43:07.880Z,97299.66
2023-04-28T05:45:35.995Z,97299.84
2023-04-28T05:48:05.150Z,97301.78
2023-04-28T05:50:33.250Z,97303.22
2023-04-28T05:53:03.867Z,97305.88
2023-04-28T05:55:31.461Z,97299.00
2023-04-28T05:57:59.844Z,97299.81
2023-04-28T06:00:28.000Z,97290.66
2023-04-28T06:02:59.660Z,97299.47
2023-04-28T06:05:27.688Z,97290.72
2023-04-28T06:07:56.913Z,97293.63
2023-04-28T06:10:27.144Z,97299.38
2023-04-28T06:12:54.646Z,97286.53
2023-04-28T06:15:22.241Z,97292.09
2023-04-28T06:17:51.251Z,97291.28
2023-04-28T06:20:18.992Z,97298.88
2023-04-28T06:22:46.602Z,97301.31
2023-04-28T06:25:14.168Z,97299.25
2023-04-28T06:27:48.765Z,97286.41
2023-04-28T06:30:19.165Z,97289.75
2023-04-28T06:32:46.866Z,97284.44
2023-04-28T06:35:14.564Z,97286.25
2023-04-28T06:37:42.102Z,97290.38
2023-04-28T06:40:10.692Z,97285.31
2023-04-28T06:42:42.041Z,97294.56
2023-04-28T06:45:19.923Z,97291.47
2023-04-28T06:47:47.650Z,97291.25
2023-04-28T06:50:15.209Z,97298.03
2023-04-28T06:52:42.690Z,97288.84
2023-04-28T06:55:10.880Z,97287.84
2023-04-28T06:57:38.731Z,97281.06
2023-04-28T07:00:08.078Z,97283.75
2023-04-28T07:02:37.808Z,97291.22
2023-04-28T07:05:06.366Z,97287.84
2023-04-28T07:07:33.882Z,97284.50
2023-04-28T07:10:01.480Z,97281.66
2023-04-28T07:12:29.439Z,97280.69
2023-04-28T07:14:56.993Z,97276.19
2023-04-28T07:17:24.798Z,97277.38
2023-04-28T07:19:53.674Z,97274.09
2023-04-28T07:22:21.162Z,97280.34
2023-04-28T07:24:48.650Z,97271.50
2023-04-28T07:27:16.301Z,97279.09
2023-04-28T07:29:43.801Z,97281.16
2023-04-28T07:32:11.460Z,97289.13
2023-04-28T07:34:39.226Z,97295.88
2023-04-28T07:37:08.112Z,97288.47
2023-04-28T07:39:36.020Z,97290.50
2023-04-28T07:42:04.056Z,97295.38
2023-04-28T07:44:32.696Z,97287.19
2023-04-28T07:47:01.908Z,97289.59
2023-04-28T07:49:29.647Z,97291.22
2023-04-28T07:51:57.265Z,97281.41
2023-04-28T07:54:26.132Z,97283.25
2023-04-28T07:56:53.775Z,97278.25
2023-04-28T07:59:21.311Z,97275.66
2023-04-28T08:01:48.817Z,97278.31
2023-04-28T08:04:17.225Z,97284.47
2023-04-28T08:06:45.704Z,97285.50
2023-04-28T08:09:13.321Z,97282.38
2023-04-28T08:11:42.466Z,97271.91
2023-04-28T08:14:10.132Z,97272.56
2023-04-28T08:16:40.407Z,97265.97
2023-04-28T08:19:08.718Z,97266.84
2023-04-28T08:21:36.334Z,97280.19
2023-04-28T08:24:03.888Z,97278.09
2023-04-28T08:26:31.426Z,97285.34
2023-04-28T08:29:00.208Z,97288.75
2023-04-28T08:31:27.802Z,97288.06
2023-04-28T08:33:55.810Z,97277.94
2023-04-28T08:36:25.092Z,97279.56
2023-04-28T08:38:52.739Z,97284.91
2023-04-28T08:41:21.714Z,97291.84
2023-04-28T08:43:50.573Z,97293.53
2023-04-28T08:46:19.533Z,97297.22
2023-04-28T08:48:47.123Z,97297.59
2023-04-28T08:51:16.777Z,97301.66
2023-04-28T08:54:11.783Z,97300.06
2023-04-28T08:56:34.918Z,97297.59
2023-04-28T08:59:04.052Z,97299.84
2023-04-28T09:01:33.311Z,97291.72
2023-04-28T09:04:02.504Z,97295.44
2023-04-28T09:06:33.619Z,97288.16
2023-04-28T09:09:20.078Z,97286.69
2023-04-28T09:11:55.421Z,97293.59
2023-04-28T09:14:23.494Z,97283.75
2023-04-28T09:16:52.912Z,97295.38
2023-04-28T09:19:21.334Z,97291.16
2023-04-28T09:21:53.862Z,97287.06
2023-04-28T09:24:29.527Z,97296.47
2023-04-28T09:26:57.094Z,97292.00
2023-04-28T09:29:24.792Z,97290.03
2023-04-28T09:31:54.669Z,97281.59
2023-04-28T09:34:22.747Z,97277.34
2023-04-28T09:36:50.614Z,97269.88
2023-04-28T09:39:29.523Z,97273.81
2023-04-28T09:41:57.341Z,97270.13
2023-04-28T09:44:24.896Z,97274.66
2023-04-28T09:46:53.737Z,97273.53
2023-04-28T09:49:21.740Z,97267.56
2023-04-28T09:51:50.254Z,97271.28
2023-04-28T09:54:18.400Z,97272.50
2023-04-28T09:56:48.619Z,97278.59
2023-04-28T09:59:16.244Z,97279.69
2023-04-28T10:01:44.823Z,97276.88
2023-04-28T10:04:14.124Z,97276.91
2023-04-28T10:06:42.135Z,97274.91
2023-04-28T10:09:10.109Z,97272.03
2023-04-28T10:11:37.845Z,97259.34
2023-04-28T10:14:05.338Z,97264.31
2023-04-28T10:16:33.289Z,97252.03
2023-04-28T10:19:03.146Z,97242.38
2023-04-28T10:21:34.668Z,97233.56
2023-04-28T10:24:11.229Z,97208.97
2023-04-28T10:26:58.945Z,97195.78
2023-04-28T10:29:27.280Z,97163.16
2023-04-28T10:32:20.994Z,97136.75
2023-04-28T10:34:48.914Z,97136.31
2023-04-28T10:37:19.000Z,97147.41
2023-04-28T10:40:25.000Z,97156.69
2023-04-28T10:42:54.905Z,97172.31
2023-04-28T10:46:00.868Z,97187.88
2023-04-28T10:48:57.180Z,97182.78
2023-04-28T10:51:32.963Z,97194.66
2023-04-28T10:54:21.772Z,97203.53
2023-04-28T10:57:20.788Z,97210.91
2023-04-28T10:59:49.290Z,97218.72
2023-04-28T11:02:44.409Z,97215.28
2023-04-28T11:05:14.434Z,97217.16
2023-04-28T11:07:42.270Z,97220.06
2023-04-28T11:10:11.353Z,97214.94
2023-04-28T11:13:17.142Z,97217.41
2023-04-28T11:15:44.804Z,97206.13
2023-04-28T11:18:18.224Z,97210.44
2023-04-28T11:20:47.852Z,97192.84
2023-04-28T11:23:15.442Z,97199.63
2023-04-28T11:25:57.842Z,97190.84
2023-04-28T11:28:25.391Z,97190.06
2023-04-28T11:30:54.227Z,97197.91
2023-04-28T11:33:22.216Z,97170.41
2023-04-28T11:35:49.755Z,97186.22
2023-04-28T11:38:17.282Z,97183.53
2023-04-28T11:40:58.362Z,97193.34
2023-04-28T11:43:43.788Z,97189.84
2023-04-28T11:46:17.935Z,97196.41
2023-04-28T11:48:45.716Z,97172.34
2023-04-28T11:51:34.924Z,97183.81
2023-04-28T11:54:03.525Z,97174.00
2023-04-28T11:56:32.721Z,97154.09
2023-04-28T11:59:05.308Z,97164.81
2023-04-28T12:01:34.079Z,97167.28
2023-04-28T12:04:01.866Z,97164.47
2023-04-28T12:06:29.802Z,97157.94
2023-04-28T12:08:57.939Z,97156.91
2023-04-28T12:11:25.991Z,97153.00
2023-04-28T12:14:10.803Z,97152.78
2023-04-28T12:16:44.977Z,97144.59
2023-04-28T12:19:15.100Z,97146.03
2023-04-28T12:21:43.139Z,97141.53
2023-04-28T12:24:18.165Z,97153.81
2023-04-28T12:26:45.734Z,97142.13
2023-04-28T12:29:39.293Z,97131.88
2023-04-28T12:32:08.201Z,97132.25
2023-04-28T12:34:36.336Z,97134.28
2023-04-28T12:37:05.913Z,97129.16
2023-04-28T12:39:34.225Z,97133.44
2023-04-28T12:42:02.408Z,97119.44
2023-04-28T12:44:35.371Z,97132.59
2023-04-28T12:47:05.802Z,97119.44
2023-04-28T12:49:33.889Z,97118.59
2023-04-28T12:52:01.727Z,97107.91
2023-04-28T12:54:29.260Z,97109.09
2023-04-28T12:56:56.885Z,97118.94
2023-04-28T12:59:24.820Z,97121.84
2023-04-28T13:01:52.353Z,97115.28
2023-04-28T13:04:21.625Z,97112.03
2023-04-28T13:06:49.453Z,97115.31
2023-04-28T13:09:17.616Z,97110.41
2023-04-28T13:11:45.135Z,97102.41
2023-04-28T13:14:13.231Z,97105.84
2023-04-28T13:16:40.789Z,97102.38
2023-04-28T13:19:10.604Z,97095.78
2023-04-28T13:21:39.859Z,97091.72
2023-04-28T13:24:07.868Z,97095.78
2023-04-28T13:26:36.007Z,97085.53
2023-04-28T13:29:04.471Z,97081.03
2023-04-28T13:31:32.240Z,97086.38
2023-04-28T13:34:01.969Z,97077.94
2023-04-28T13:36:30.354Z,97067.47
2023-04-28T13:39:01.607Z,97070.75
2023-04-28T13:41:29.912Z,97066.22
2023-04-28T13:43:57.413Z,97063.97
2023-04-28T13:46:24.968Z,97065.16
2023-04-28T13:48:52.511Z,97069.69
2023-04-28T13:51:20.037Z,97062.25
2023-04-28T13:53:47.690Z,97054.84
2023-04-28T13:56:16.894Z,97056.69
2023-04-28T13:58:44.463Z,97061.84
2023-04-28T14:01:12.056Z,97068.84
2023-04-28T14:03:42.061Z,97071.53
2023-04-28T14:06:09.709Z,97072.53
2023-04-28T14:08:37.218Z,97075.16
2023-04-28T14:11:04.908Z,97074.13
2023-04-28T14:13:33.934Z,97076.78
2023-04-28T14:16:01.791Z,97078.66
2023-04-28T14:18:29.331Z,97066.16
2023-04-28T14:20:57.025Z,97064.72
2023-04-28T14:23:24.609Z,97075.03
2023-04-28T14:25:56.047Z,97046.88
2023-04-28T14:28:23.854Z,97056.97
2023-04-28T14:30:54.509Z,97058.38
2023-04-28T14:33:22.208Z,97060.44
2023-04-28T14:35:49.793Z,97051.19
2023-04-28T14:38:17.303Z,97055.72
2023-04-28T14:40:44.835Z,97048.31
2023-04-28T14:43:13.818Z,97048.97
2023-04-28T14:45:41.432Z,97050.81
2023-04-28T14:48:10.751Z,97051.00
2023-04-28T14:50:38.803Z,97059.03
2023-04-28T14:53:07.389Z,97058.03
2023-04-28T14:55:35.021Z,97058.66
2023-04-28T14:58:02.901Z,97050.50
2023-04-28T15:00:30.771Z,97048.63
2023-04-28T15:02:58.516Z,97044.28
2023-04-28T15:05:27.507Z,97037.31
2023-04-28T15:07:55.033Z,97036.94
2023-04-28T15:10:22.522Z,97043.91
2023-04-28T15:12:50.088Z,97037.34
2023-04-28T15:15:17.666Z,97035.69
2023-04-28T15:17:45.961Z,97043.47
2023-04-28T15:20:13.531Z,97042.03
2023-04-28T15:22:44.491Z,97027.91
2023-04-28T15:25:12.032Z,97035.47
2023-04-28T15:27:41.189Z,97024.19
2023-04-28T15:30:10.849Z,97020.34
2023-04-28T15:32:38.638Z,97027.72
2023-04-28T15:35:07.283Z,97029.78
2023-04-28T15:37:43.776Z,97034.91
2023-04-28T15:40:13.078Z,97024.84
2023-04-28T15:42:42.198Z,97025.50
2023-04-28T15:45:11.843Z,97024.22
2023-04-28T15:47:40.576Z,97018.31
2023-04-28T15:50:10.534Z,97015.81
2023-04-28T15:52:39.825Z,97010.84
2023-04-28T15:55:10.122Z,96981.28
2023-04-28T15:57:37.712Z,97009.41
2023-04-28T16:00:06.253Z,97012.25
2023-04-28T16:02:35.615Z,97008.59
2023-04-28T16:05:04.618Z,97001.41
2023-04-28T16:07:37.850Z,97000.97
2023-04-28T16:10:08.174Z,97002.59
2023-04-28T16:12:37.626Z,96999.75
2023-04-28T16:15:05.620Z,97009.22
2023-04-28T16:17:34.057Z,97015.56
2023-04-28T16:20:01.852Z,97017.22
2023-04-28T16:22:29.741Z,97018.91
2023-04-28T16:24:57.681Z,97024.22
2023-04-28T16:27:25.181Z,97026.09
2023-04-28T16:29:54.127Z,97022.19
2023-04-28T16:32:21.811Z,97020.94
2023-04-28T16:34:49.425Z,97025.28
2023-04-28T16:37:17.090Z,97021.56
2023-04-28T16:39:44.691Z,97016.47
2023-04-28T16:42:12.370Z,97018.50
2023-04-28T16:44:39.837Z,97010.09
2023-04-28T16:47:08.716Z,97013.19
2023-04-28T16:49:36.201Z,97007.00
2023-04-28T16:52:05.269Z,97002.72
2023-04-28T16:54:33.501Z,97001.88
2023-04-28T16:57:04.080Z,97006.59
2023-04-28T16:59:33.234Z,97009.69
2023-04-28T17:02:03.730Z,97017.28
2023-04-28T17:04:32.806Z,97014.63
2023-04-28T17:07:03.726Z,97000.88
2023-04-28T17:09:32.978Z,97008.69
2023-04-28T17:12:00.624Z,97002.75
2023-04-28T17:14:28.223Z,96997.59
2023-04-28T17:16:56.427Z,97003.97
2023-04-28T17:19:23.936Z,96997.41
2023-04-28T17:21:55.339Z,97001.28
2023-04-28T17:24:22.938Z,96998.84
2023-04-28T17:26:51.089Z,96999.25
2023-04-28T17:29:19.020Z,96998.44
2023-04-28T17:31:46.571Z,97001.72
2023-04-28T17:34:14.072Z,97006.63
2023-04-28T17:36:42.136Z,96998.44
2023-04-28T17:39:10.978Z,97008.69
2023-04-28T17:41:38.572Z,97009.31
2023-04-28T17:44:06.692Z,97009.31
2023-04-28T17:46:34.209Z,97010.75
2023-04-28T17:49:01.695Z,97008.69
2023-04-28T17:51:29.192Z,97014.66
2023-04-28T17:53:57.625Z,97015.66
2023-04-28T17:56:26.986Z,97006.22
2023-04-28T17:58:55.126Z,97004.59
2023-04-28T18:01:22.769Z,97009.31
2023-04-28T18:03:51.692Z,97015.25
2023-04-28T18:06:22.284Z,97016.50
2023-04-28T18:08:49.963Z,97018.97
2023-04-28T18:11:17.494Z,97014.44
2023-04-28T18:13:46.363Z,97018.97
2023-04-28T18:16:15.033Z,97013.78
2023-04-28T18:18:43.012Z,97025.69
2023-04-28T18:21:11.070Z,97022.25
2023-04-28T18:23:39.282Z,97026.13
2023-04-28T18:26:06.768Z,97017.31
2023-04-28T18:28:34.733Z,97032.28
2023-04-28T18:31:05.306Z,97025.50
2023-04-28T18:33:32.951Z,97020.41
2023-04-28T18:36:01.822Z,97018.50
2023-04-28T18:38:30.951Z,97017.50
2023-04-28T18:40:58.983Z,97016.06
2023-04-28T18:43:27.988Z,97018.31
2023-04-28T18:45:55.496Z,97022.00
2023-04-28T18:48:25.694Z,97025.50
2023-04-28T18:50:53.888Z,97028.81
2023-04-28T18:53:21.397Z,97033.53
2023-04-28T18:55:49.432Z,97034.94
2023-04-28T18:58:16.928Z,97021.41
2023-04-28T19:00:45.333Z,97033.94
2023-04-28T19:03:13.541Z,97040.91
2023-04-28T19:05:44.640Z,97042.78
2023-04-28T19:08:13.022Z,97040.91
2023-04-28T19:10:41.107Z,97041.31
2023-04-28T19:13:08.637Z,97031.03
2023-04-28T19:15:36.152Z,97035.16
2023-04-28T19:18:05.795Z,97034.13
2023-04-28T19:20:34.925Z,97041.50
2023-04-28T19:23:03.773Z,97038.81
2023-04-28T19:25:33.550Z,97035.97
2023-04-28T19:28:01.099Z,97035.16
2023-04-28T19:30:28.832Z,97043.34
2023-04-28T19:32:56.364Z,97039.47
2023-04-28T19:35:24.209Z,97035.34
2023-04-28T19:37:51.803Z,97036.94
2023-04-28T19:40:20.809Z,97034.13
2023-04-28T19:42:48.388Z,97033.31
2023-04-28T19:45:17.005Z,97033.72
2023-04-28T19:47:44.781Z,97040.06
2023-04-28T19:50:12.384Z,97035.97
2023-04-28T19:52:39.867Z,97022.19
2023-04-28T19:55:08.892Z,97024.03
2023-04-28T19:57:37.739Z,97015.19
2023-04-28T20:00:08.098Z,97018.47
2023-04-28T20:02:35.726Z,97017.88
2023-04-28T20:05:03.659Z,97025.47
2023-04-28T20:07:31.216Z,97026.13
2023-04-28T20:09:58.918Z,97024.06
2023-04-28T20:12:26.433Z,97017.91
2023-04-28T20:14:55.740Z,97024.25
2023-04-28T20:17:23.914Z,97026.13
2023-04-28T20:19:52.056Z,97029.63
2023-04-28T20:22:19.812Z,97031.28
2023-04-28T20:24:47.344Z,97027.41
2023-04-28T20:27:15.173Z,97024.72
2023-04-28T20:29:42.678Z,97030.09
2023-04-28T20:32:11.610Z,97030.47
2023-04-28T20:34:39.423Z,97035.81
2023-04-28T20:37:08.073Z,97045.25
2023-04-28T20:39:35.647Z,97038.28
2023-04-28T20:42:03.480Z,97040.13
2023-04-28T20:44:30.953Z,97039.53
2023-04-28T20:46:59.168Z,97038.50
2023-04-28T20:49:28.279Z,97036.66
2023-04-28T20:52:03.140Z,97031.72
2023-04-28T20:54:32.635Z,97032.97
2023-04-28T20:57:00.310Z,97033.16
2023-04-28T20:59:28.681Z,97027.63
2023-04-28T21:01:57.556Z,97030.69
2023-04-28T21:04:25.440Z,97029.25
2023-04-28T21:06:54.278Z,97039.72
2023-04-28T21:09:24.833Z,97035.22
2023-04-28T21:11:52.383Z,97025.34
2023-04-28T21:14:20.175Z,97030.09
2023-04-28T21:16:47.845Z,97031.72
2023-04-28T21:19:15.431Z,97043.19
2023-04-28T21:21:42.969Z,97043.00
2023-04-28T21:24:12.589Z,97043.63
2023-04-28T21:26:40.717Z,97043.38
2023-04-28T21:29:09.273Z,97037.88
2023-04-28T21:31:37.263Z,97038.50
2023-04-28T21:34:04.813Z,97029.84
2023-04-28T21:36:32.456Z,97031.72
2023-04-28T21:38:59.923Z,97034.56
2023-04-28T21:41:28.740Z,97035.38
2023-04-28T21:43:56.210Z,97025.78
2023-04-28T21:46:24.038Z,97027.81
2023-04-28T21:48:51.667Z,97016.94
2023-04-28T21:51:19.237Z,97020.84
2023-04-28T21:53:46.710Z,97018.19
2023-04-28T21:56:15.874Z,97034.56
2023-04-28T21:58:45.058Z,97032.31
2023-04-28T22:01:13.055Z,97021.66
2023-04-28T22:03:40.910Z,97027.22
2023-04-28T22:06:09.030Z,97032.94
2023-04-28T22:08:36.597Z,97032.53
2023-04-28T22:11:04.713Z,97036.44
2023-04-28T22:13:32.195Z,97039.91
2023-04-28T22:16:01.725Z,97041.34
2023-04-28T22:18:29.871Z,97028.00
2023-04-28T22:20:57.449Z,97039.50
2023-04-28T22:23:25.022Z,97039.50
2023-04-28T22:25:52.548Z,97020.00
2023-04-28T22:28:20.019Z,97023.72
2023-04-28T22:30:47.806Z,97016.75
2023-04-28T22:33:17.044Z,97011.00
2023-04-28T22:35:44.551Z,97002.00
2023-04-28T22:38:12.035Z,97012.03
2023-04-28T22:40:39.509Z,97012.66
2023-04-28T22:43:06.989Z,97009.56
2023-04-28T22:45:34.470Z,97006.09
2023-04-28T22:48:02.522Z,97015.31
2023-04-28T22:50:31.469Z,97014.09
2023-04-28T22:52:58.982Z,97014.50
2023-04-28T22:55:26.674Z,97000.75
2023-04-28T22:57:54.153Z,97003.84
2023-04-28T23:00:21.834Z,97007.13
2023-04-28T23:02:49.431Z,97001.16
2023-04-28T23:05:17.878Z,97003.41
2023-04-28T23:07:46.698Z,97000.13
2023-04-28T23:10:14.772Z,97005.88
2023-04-28T23:12:42.308Z,97007.31
2023-04-28T23:15:10.473Z,97001.38
2023-04-28T23:17:38.225Z,97002.59
2023-04-28T23:20:07.372Z,97002.19
2023-04-28T23:22:34.843Z,97005.47
2023-04-28T23:25:04.292Z,97000.97
2023-04-28T23:27:32.075Z,97008.94
2023-04-28T23:29:59.621Z,96997.25
2023-04-28T23:32:27.139Z,96998.09
2023-04-28T23:34:54.951Z,96989.88
2023-04-28T23:37:22.486Z,96985.16
2023-04-28T23:39:50.172Z,96989.69
2023-04-28T23:42:19.172Z,96984.97
2023-04-28T23:44:46.655Z,96977.97
2023-04-28T23:47:14.415Z,96974.91
2023-04-28T23:49:41.884Z,96973.28
2023-04-28T23:52:09.425Z,96962.38
2023-04-28T23:54:36.947Z,96971.59
2023-04-28T23:57:04.553Z,96966.06
2023-04-28T23:59:33.380Z,96961.19
